Andrews, Indiana
Current Conditions -  °F | °C
As of 11:15 PM on Thursday 27 Nov 2014 (Local Time) from KHHG Reporting Station
Clear Clear  
Wind Chill: -6°   Ceiling: Unl
Heat Index: -6°   Visibility: 10mi
Dew Point: -8°   Wind: 3mph
Humidity: 84%   Direction: 280°W
Pressure: 30.37"   Gusts: NA
Location:  40.86°N, 85.6°W
Report Text: KHHG 280415Z AUTO 28003KT 10SM CLR M06/M08 A3037 RMK AO2 T10581081
Loading
Personal Weather Stations






























Interactive Weather Map New forecast layout! Learn more

10-Day Weather Forecast

Advertisements
Track Severe Weather on mobile